Time;durP1;ratioP1;P1;durP2;ratioP2;P2;SDS_P1;SDS_P2;PMS_P1;PMS_P2;Temp;Humidity;BMP_temperature;BMP_pressure;BME280_temperature;BME280_humidity;BME280_pressure;Samples;Min_cycle;Max_cycle;Signal;HPM_P1;HPM_P2
2022/04/13 00:01:01;;;;;;;4.68;1.58;;;;;;;20.44;26.54;100083.31;10565967;27;20259;-84
2022/04/13 00:06:04;;;;;;;3.83;1.53;;;;;;;20.23;26.98;100082.22;10567406;28;20626;-83
2022/04/13 00:11:06;;;;;;;3.83;1.38;;;;;;;20.22;26.91;100088.41;10584214;28;20575;-84
2022/04/13 00:16:08;;;;;;;6.30;1.37;;;;;;;20.08;26.83;100088.50;10567180;28;20202;-86
2022/04/13 00:21:10;;;;;;;3.33;1.40;;;;;;;19.88;27.28;100086.09;10552914;28;20206;-86
2022/04/13 00:26:13;;;;;;;5.90;1.57;;;;;;;19.82;27.29;100087.81;10573645;28;20222;-86
2022/04/13 00:31:15;;;;;;;2.63;1.40;;;;;;;19.87;27.14;100093.09;10584797;28;20194;-83
2022/04/13 00:36:17;;;;;;;2.92;1.38;;;;;;;19.75;26.90;100095.63;10581006;27;20199;-86
2022/04/13 00:41:21;;;;;;;5.10;1.45;;;;;;;19.91;26.40;100090.19;10576456;28;20282;-83
2022/04/13 00:46:23;;;;;;;3.88;1.40;;;;;;;19.88;27.34;100096.78;10591589;28;20214;-83
2022/04/13 00:51:26;;;;;;;1.92;1.23;;;;;;;19.56;27.44;100099.81;10574803;28;20189;-82
2022/04/13 00:56:29;;;;;;;3.50;1.40;;;;;;;19.66;27.22;100109.59;10574597;28;20467;-83
2022/04/13 01:01:34;;;;;;;3.37;1.50;;;;;;;19.86;26.87;100105.78;10590837;28;20291;-83
2022/04/13 01:06:38;;;;;;;1.20;0.95;;;;;;;19.74;25.80;100114.88;10574171;28;20271;-83
2022/04/13 01:11:40;;;;;;;4.47;1.50;;;;;;;19.79;25.66;100116.50;10573878;28;20220;-85
2022/04/13 01:16:42;;;;;;;1.83;0.82;;;;;;;20.35;24.47;100115.34;10584581;28;20218;-83
2022/04/13 01:21:53;;;;;;;6.82;1.25;;;;;;;20.32;24.77;100119.06;10573348;28;20197;-84
2022/04/13 01:26:56;;;;;;;3.10;1.00;;;;;;;20.18;25.12;100122.03;10573782;28;20225;-83
2022/04/13 01:31:58;;;;;;;5.00;1.20;;;;;;;19.95;25.30;100134.88;10572813;28;20202;-84
2022/04/13 01:37:00;;;;;;;3.37;1.50;;;;;;;20.10;25.42;100127.00;10572202;28;20229;-84
2022/04/13 01:42:03;;;;;;;3.17;1.80;;;;;;;19.75;26.51;100138.63;10590515;28;20190;-84
2022/04/13 01:47:05;;;;;;;4.32;2.00;;;;;;;19.71;26.01;100134.97;10572263;28;20214;-83
2022/04/13 01:52:08;;;;;;;2.85;1.33;;;;;;;19.67;26.08;100142.78;10571831;28;20194;-84
2022/04/13 01:57:10;;;;;;;3.67;1.23;;;;;;;19.63;26.44;100148.53;10572025;28;20259;-83
2022/04/13 02:02:12;;;;;;;2.57;1.20;;;;;;;19.25;26.80;100155.97;10571720;28;20222;-84
2022/04/13 02:07:14;;;;;;;2.93;1.60;;;;;;;19.05;27.12;100158.44;10566973;28;20613;-83
2022/04/13 02:12:16;;;;;;;3.35;1.27;;;;;;;19.28;26.96;100160.06;10571123;28;20267;-84
2022/04/13 02:17:19;;;;;;;3.08;1.38;;;;;;;19.16;27.17;100162.16;10588119;28;20206;-84
2022/04/13 02:22:22;;;;;;;1.93;1.30;;;;;;;18.84;27.77;100161.31;10573244;27;20236;-84
2022/04/13 02:27:44;;;;;;;3.70;1.60;;;;;;;18.77;27.96;100167.88;10621922;27;20713;-84
2022/04/13 02:32:46;;;;;;;3.25;1.40;;;;;;;18.98;27.65;100152.75;10601074;27;20282;-84
2022/04/13 02:37:49;;;;;;;4.22;1.45;;;;;;;18.59;28.46;100157.63;10557813;28;20190;-84
2022/04/13 02:42:51;;;;;;;1.83;1.20;;;;;;;18.90;27.51;100151.13;10585445;27;20517;-84
2022/04/13 02:47:53;;;;;;;3.00;1.48;;;;;;;18.85;27.39;100154.34;10569883;28;20213;-84
2022/04/13 02:52:56;;;;;;;2.40;1.33;;;;;;;18.65;28.29;100156.00;10570053;28;20197;-84
2022/04/13 02:57:59;;;;;;;2.77;1.53;;;;;;;18.82;27.99;100161.72;10569881;28;20243;-84
2022/04/13 03:03:02;;;;;;;1.42;1.30;;;;;;;18.87;27.93;100164.19;10579757;28;20512;-84
2022/04/13 03:08:06;;;;;;;4.00;1.40;;;;;;;18.54;28.28;100167.44;10568670;28;20266;-84
2022/04/13 03:13:10;;;;;;;2.13;1.63;;;;;;;18.45;28.76;100182.16;10568067;28;20198;-84
2022/04/13 03:18:12;;;;;;;3.27;1.80;;;;;;;18.30;28.85;100180.47;10526659;28;20223;-84
2022/04/13 03:23:14;;;;;;;4.53;1.77;;;;;;;17.72;29.72;100178.63;10542852;28;20641;-84
2022/04/13 03:28:17;;;;;;;6.93;1.87;;;;;;;18.34;28.73;100178.47;10543362;28;20614;-84
2022/04/13 03:33:19;;;;;;;3.33;1.53;;;;;;;17.61;29.70;100192.03;10543123;28;20187;-84
2022/04/13 03:38:21;;;;;;;7.10;1.57;;;;;;;17.88;29.33;100203.22;10543326;28;20255;-84
2022/04/13 03:43:26;;;;;;;4.57;2.20;;;;;;;17.58;29.56;100204.25;10542660;28;20190;-84
2022/04/13 03:48:29;;;;;;;5.70;1.87;;;;;;;17.74;29.12;100201.94;10542643;28;20605;-84
2022/04/13 03:53:31;;;;;;;5.90;1.87;;;;;;;18.49;26.99;100199.34;10542409;28;20264;-84
2022/04/13 03:58:33;;;;;;;3.73;1.60;;;;;;;18.94;26.30;100202.66;10593666;27;20237;-84
2022/04/13 04:03:36;;;;;;;4.73;1.60;;;;;;;19.06;26.13;100217.41;10609783;27;20205;-83
2022/04/13 04:08:38;;;;;;;3.73;1.40;;;;;;;19.06;26.57;100220.25;10609866;27;20240;-84
2022/04/13 04:13:40;;;;;;;3.40;1.63;;;;;;;18.81;27.14;100222.28;10582740;28;20560;-84
2022/04/13 04:18:44;;;;;;;6.27;2.30;;;;;;;18.72;27.58;100234.13;10624009;27;20213;-84
2022/04/13 04:23:47;;;;;;;10.07;2.73;;;;;;;17.92;29.39;100226.91;10626434;27;20238;-85
2022/04/13 04:28:50;;;;;;;13.10;2.47;;;;;;;18.08;29.54;100233.13;10618468;27;20221;-84
2022/04/13 04:33:52;;;;;;;10.83;2.10;;;;;;;18.20;29.15;100239.31;10627054;27;20197;-84
2022/04/13 04:38:54;;;;;;;8.87;1.93;;;;;;;17.90;29.27;100246.50;10609095;28;20198;-84
2022/04/13 04:43:56;;;;;;;5.63;2.00;;;;;;;18.03;28.20;100245.75;10625744;27;20185;-84
2022/04/13 04:48:58;;;;;;;4.30;1.60;;;;;;;18.20;28.59;100249.94;10608722;27;20213;-84
2022/04/13 04:54:02;;;;;;;3.57;1.80;;;;;;;18.17;28.63;100250.72;10608838;27;20262;-84
2022/04/13 04:59:04;;;;;;;4.33;2.07;;;;;;;18.36;28.03;100247.56;10566043;28;20222;-84
2022/04/13 05:04:07;;;;;;;3.07;2.00;;;;;;;18.33;28.02;100254.09;10546954;28;20648;-85
2022/04/13 05:09:09;;;;;;;4.33;1.43;;;;;;;18.58;27.00;100253.34;10537643;28;20279;-84
2022/04/13 05:14:11;;;;;;;6.57;2.17;;;;;;;18.99;26.55;100251.78;10575128;28;20598;-84
2022/04/13 05:19:15;;;;;;;6.30;1.90;;;;;;;18.88;26.94;100263.25;10547322;28;20222;-85
2022/04/13 05:24:17;;;;;;;4.07;1.92;;;;;;;18.77;27.78;100264.44;10559850;28;20209;-85
2022/04/13 05:29:21;;;;;;;17.48;2.65;;;;;;;18.18;29.06;100275.25;10580900;27;20514;-84
2022/04/13 05:34:23;;;;;;;9.98;3.15;;;;;;;17.81;30.01;100282.03;10547748;28;20207;-85
2022/04/13 05:39:25;;;;;;;11.97;3.03;;;;;;;17.26;31.13;100281.19;10598082;27;20199;-85
2022/04/13 05:44:28;;;;;;;10.95;2.50;;;;;;;17.37;31.29;100289.84;10609691;27;20262;-85
2022/04/13 05:49:30;;;;;;;14.73;3.63;;;;;;;17.55;30.76;100287.13;10583185;27;20225;-85
2022/04/13 05:54:32;;;;;;;17.33;2.73;;;;;;;17.84;30.92;100301.25;10571823;27;20205;-84
2022/04/13 05:59:35;;;;;;;11.37;2.90;;;;;;;17.94;30.60;100307.44;10567046;27;20235;-84
2022/04/13 06:04:37;;;;;;;8.60;2.90;;;;;;;18.16;30.29;100314.88;10566384;28;20270;-84
2022/04/13 06:09:39;;;;;;;7.93;2.92;;;;;;;18.35;30.32;100317.47;10577836;27;20769;-86
2022/04/13 06:14:42;;;;;;;11.60;2.90;;;;;;;18.87;28.80;100320.91;10578860;27;20205;-85
2022/04/13 06:19:44;;;;;;;9.35;2.95;;;;;;;19.04;28.61;100323.03;10591492;27;20264;-84
2022/04/13 06:24:51;;;;;;;9.38;2.40;;;;;;;19.36;27.89;100336.53;10556096;27;20337;-84
2022/04/13 06:29:53;;;;;;;11.20;2.93;;;;;;;19.60;27.54;100332.88;10555549;27;20564;-85
2022/04/13 06:34:58;;;;;;;10.10;3.50;;;;;;;19.82;27.21;100346.00;10563413;28;20929;-84
2022/04/13 06:40:01;;;;;;;9.80;3.13;;;;;;;18.93;28.71;100347.13;10566674;27;20194;-85
2022/04/13 06:45:10;;;;;;;6.27;2.30;;;;;;;18.12;29.69;100357.00;10560956;28;20202;-83
2022/04/13 06:50:12;;;;;;;7.10;2.88;;;;;;;19.65;27.51;100349.69;10570236;27;20221;-83
2022/04/13 06:55:14;;;;;;;8.13;2.80;;;;;;;19.80;27.25;100359.91;10568495;27;20208;-84
2022/04/13 07:00:17;;;;;;;12.38;3.45;;;;;;;20.15;27.02;100375.47;10550857;28;20222;-84
2022/04/13 07:05:19;;;;;;;7.25;3.22;;;;;;;19.24;28.11;100384.44;10577781;27;20602;-87
2022/04/13 07:10:21;;;;;;;6.93;3.30;;;;;;;20.59;26.68;100383.53;10587584;27;20229;-85
2022/04/13 07:15:24;;;;;;;9.32;4.25;;;;;;;18.96;29.59;100390.13;10565842;27;20202;-85
2022/04/13 07:20:26;;;;;;;16.95;4.57;;;;;;;20.95;26.49;100387.88;10612916;27;20217;-84
2022/04/13 07:25:28;;;;;;;10.73;4.57;;;;;;;19.94;27.92;100384.91;10572810;27;20663;-86
2022/04/13 07:30:31;;;;;;;11.93;4.82;;;;;;;20.56;27.07;100384.34;10561300;27;20249;-86
2022/04/13 07:35:34;;;;;;;12.57;6.83;;;;;;;20.13;27.71;100390.22;10579960;27;21286;-84
2022/04/13 07:40:36;;;;;;;13.55;6.88;;;;;;;20.93;27.03;100398.16;10581607;28;20198;-84
2022/04/13 07:45:39;;;;;;;14.00;5.28;;;;;;;20.91;26.71;100389.13;10567256;28;20206;-84
2022/04/13 07:50:42;;;;;;;15.50;5.65;;;;;;;20.86;26.76;100398.22;10554828;27;20226;-84
2022/04/13 07:55:44;;;;;;;12.95;4.97;;;;;;;21.31;26.26;100402.88;10535934;28;20222;-85
2022/04/13 08:00:46;;;;;;;15.65;6.47;;;;;;;19.90;28.22;100407.03;10582434;28;20226;-83
2022/04/13 08:05:49;;;;;;;15.40;6.17;;;;;;;20.56;27.76;100413.91;10599527;27;20205;-83
2022/04/13 08:10:51;;;;;;;13.32;5.60;;;;;;;20.61;28.41;100419.19;10615861;27;20221;-85
2022/04/13 08:15:53;;;;;;;17.02;6.50;;;;;;;20.21;28.29;100426.31;10609848;27;20201;-83
2022/04/13 08:20:55;;;;;;;14.75;5.78;;;;;;;21.57;26.66;100420.78;10610961;28;20497;-83
2022/04/13 08:25:57;;;;;;;17.25;6.97;;;;;;;21.89;26.12;100427.13;10580054;28;20566;-82
2022/04/13 08:31:02;;;;;;;13.52;5.82;;;;;;;20.97;27.31;100439.22;10604252;28;20221;-83
2022/04/13 08:36:04;;;;;;;17.00;7.00;;;;;;;21.86;25.83;100439.50;10609138;28;20340;-83
2022/04/13 08:41:13;;;;;;;12.60;6.95;;;;;;;22.00;25.88;100442.25;10625845;27;20185;-83
2022/04/13 08:46:23;;;;;;;14.52;7.95;;;;;;;22.24;26.46;100442.41;10625666;27;20197;-84
2022/04/13 08:51:26;;;;;;;15.45;7.55;;;;;;;21.35;27.04;100446.81;10603114;27;20522;-83
2022/04/13 08:56:29;;;;;;;22.02;7.70;;;;;;;22.64;26.01;100440.78;10556508;27;20202;-83
2022/04/13 09:01:36;;;;;;;13.93;7.65;;;;;;;22.14;26.26;100447.06;10571086;28;20218;-83
2022/04/13 09:06:40;;;;;;;13.68;7.38;;;;;;;21.76;28.29;100462.59;10573388;28;20209;-83
2022/04/13 09:11:44;;;;;;;14.90;8.13;;;;;;;22.82;26.39;100449.25;10586155;27;20233;-83
2022/04/13 09:16:46;;;;;;;17.75;8.27;;;;;;;22.08;27.37;100460.25;10600844;27;20548;-84
2022/04/13 09:21:51;;;;;;;15.10;7.47;;;;;;;22.81;25.82;100447.59;10615894;27;20462;-83
2022/04/13 09:26:54;;;;;;;13.95;8.43;;;;;;;22.77;25.97;100454.22;10632510;27;20250;-84
2022/04/13 09:31:56;;;;;;;13.90;8.10;;;;;;;22.86;25.95;100450.81;10602570;27;20221;-83
2022/04/13 09:37:00;;;;;;;16.00;7.28;;;;;;;22.69;25.65;100451.81;10618138;27;20243;-83
2022/04/13 09:42:05;;;;;;;12.23;7.28;;;;;;;20.89;27.91;100460.56;10604963;27;20201;-82
2022/04/13 09:47:08;;;;;;;11.82;6.90;;;;;;;20.99;28.39;100462.59;10631722;27;20527;-82
2022/04/13 09:52:11;;;;;;;16.55;5.97;;;;;;;22.64;26.15;100450.25;10605483;27;20721;-83
2022/04/13 09:57:23;;;;;;;14.20;5.93;;;;;;;22.53;27.23;100446.69;10584176;28;20220;-82
2022/04/13 10:02:39;;;;;;;14.82;5.43;;;;;;;24.23;24.72;100437.63;10561134;27;20213;-83
2022/04/13 10:07:43;;;;;;;12.07;5.47;;;;;;;23.23;25.45;100441.25;10552432;28;20586;-83
2022/04/13 10:12:49;;;;;;;14.52;5.53;;;;;;;23.92;24.22;100441.91;10563425;28;20652;-83
2022/04/13 10:17:57;;;;;;;10.13;4.07;;;;;;;21.71;26.92;100455.19;10587693;28;20633;-83
2022/04/13 10:23:01;;;;;;;9.02;3.53;;;;;;;23.43;25.80;100441.44;10587580;28;20186;-82
2022/04/13 10:28:04;;;;;;;6.78;3.28;;;;;;;21.18;27.25;100456.34;10587607;28;20459;-83
2022/04/13 10:33:11;;;;;;;11.75;4.50;;;;;;;23.03;26.78;100452.66;10605538;27;20220;-83
2022/04/13 10:38:13;;;;;;;9.60;3.50;;;;;;;23.51;24.59;100451.59;10594968;27;20294;-83
2022/04/13 10:43:16;;;;;;;6.25;2.17;;;;;;;22.42;25.22;100459.56;10591782;27;20590;-83
2022/04/13 10:48:22;;;;;;;6.68;3.03;;;;;;;22.73;25.07;100462.06;10584651;27;20230;-84
2022/04/13 10:53:28;;;;;;;8.52;2.85;;;;;;;22.26;26.42;100468.75;10622047;27;20214;-83
2022/04/13 10:58:33;;;;;;;7.05;3.60;;;;;;;22.51;26.03;100475.09;10611989;27;20222;-82
2022/04/13 11:03:38;;;;;;;10.73;2.88;;;;;;;23.75;24.25;100461.13;10585958;27;21177;-83
2022/04/13 11:08:57;;;;;;;8.73;2.83;;;;;;;21.30;27.43;100481.75;10564467;28;20270;-84
2022/04/13 11:14:00;;;;;;;8.27;2.30;;;;;;;22.73;24.90;100476.47;10559931;28;20258;-84
2022/04/13 11:19:11;;;;;;;13.30;3.45;;;;;;;21.89;26.90;100486.75;10540703;27;20225;-84
2022/04/13 11:24:40;;;;;;;14.88;3.78;;;;;;;24.06;24.32;100471.34;10550982;27;20206;-83
2022/04/13 11:29:44;;;;;;;14.35;3.47;;;;;;;23.81;23.96;100477.50;10551902;27;20206;-84
2022/04/13 11:34:49;;;;;;;8.05;2.67;;;;;;;24.67;22.72;100468.16;10571749;28;20279;-84
2022/04/13 11:39:57;;;;;;;7.63;2.90;;;;;;;22.37;26.25;100481.00;10570825;27;20206;-83
2022/04/13 11:45:00;;;;;;;9.18;2.97;;;;;;;24.02;24.42;100482.13;10564029;28;20203;-84
2022/04/13 11:50:06;;;;;;;6.85;2.97;;;;;;;24.39;24.96;100477.38;10545288;28;20222;-84
2022/04/13 11:55:16;;;;;;;4.43;1.90;;;;;;;24.54;23.60;100475.88;10568848;27;20205;-83
2022/04/13 12:00:38;;;;;;;5.78;2.42;;;;;;;24.84;23.41;100483.53;10547411;27;20247;-83
2022/04/13 12:05:46;;;;;;;5.60;2.58;;;;;;;22.79;25.17;100491.25;10609421;27;20254;-84
2022/04/13 12:10:50;;;;;;;7.15;2.80;;;;;;;24.93;23.09;100480.06;10588880;27;20224;-82
2022/04/13 12:15:54;;;;;;;6.43;1.70;;;;;;;24.56;23.68;100487.81;10581065;27;20201;-84
2022/04/13 12:21:08;;;;;;;10.85;2.92;;;;;;;24.31;23.34;100485.34;10558462;28;20198;-83
2022/04/13 12:26:11;;;;;;;10.13;2.58;;;;;;;24.39;23.27;100486.88;10577306;28;20252;-83
2022/04/13 12:31:13;;;;;;;5.88;2.60;;;;;;;22.39;25.42;100493.72;10574953;28;20225;-84
2022/04/13 12:36:16;;;;;;;11.45;2.38;;;;;;;24.15;24.54;100488.94;10584782;28;20259;-83
2022/04/13 12:41:19;;;;;;;11.93;2.63;;;;;;;23.59;24.48;100487.78;10591724;27;20205;-84
2022/04/13 12:46:26;;;;;;;8.88;2.58;;;;;;;22.62;26.67;100493.06;10573919;28;20259;-84
2022/04/13 12:51:37;;;;;;;11.35;2.95;;;;;;;23.96;25.87;100488.88;10583009;28;20268;-85
2022/04/13 12:56:46;;;;;;;5.70;3.10;;;;;;;23.10;26.83;100495.81;10562246;28;20503;-84
2022/04/13 13:01:54;;;;;;;8.95;3.65;;;;;;;21.29;28.40;100517.50;10603716;27;20224;-84
2022/04/13 13:06:59;;;;;;;7.05;2.92;;;;;;;23.31;26.92;100503.38;10614827;27;20205;-83
2022/04/13 13:12:04;;;;;;;5.68;3.15;;;;;;;23.15;26.63;100508.94;10561851;28;20244;-83
2022/04/13 13:17:33;;;;;;;7.57;3.15;;;;;;;22.65;27.06;100511.59;10542652;28;20227;-84
2022/04/13 13:22:38;;;;;;;9.25;3.33;;;;;;;22.97;26.92;100509.16;10559025;28;20258;-85
2022/04/13 13:27:49;;;;;;;7.40;3.20;;;;;;;23.84;24.86;100509.66;10561868;28;20201;-84
2022/04/13 13:32:55;;;;;;;6.60;2.83;;;;;;;22.18;26.96;100513.22;10580195;28;20222;-84
2022/04/13 13:38:06;;;;;;;8.40;2.60;;;;;;;23.07;26.12;100507.41;10554848;28;20254;-84
2022/04/13 13:43:15;;;;;;;4.10;1.65;;;;;;;21.69;26.83;100526.72;10573600;28;20270;-84
2022/04/13 13:48:21;;;;;;;6.53;2.03;;;;;;;23.06;25.23;100518.13;10563184;28;20228;-83
2022/04/13 13:53:28;;;;;;;5.03;2.00;;;;;;;21.97;27.27;100523.69;10548676;27;20239;-85
2022/04/13 13:58:30;;;;;;;7.88;2.08;;;;;;;22.47;26.59;100519.56;10542175;27;20275;-84
2022/04/13 14:03:33;;;;;;;7.80;2.20;;;;;;;22.24;27.11;100523.06;10560531;27;20217;-83
2022/04/13 14:08:35;;;;;;;6.85;1.88;;;;;;;22.90;25.97;100519.97;10539399;27;20214;-85
2022/04/13 14:13:38;;;;;;;6.10;1.90;;;;;;;22.04;27.31;100531.44;10552584;27;20652;-84
2022/04/13 14:18:40;;;;;;;5.72;2.63;;;;;;;22.21;27.66;100530.47;10541758;27;20274;-85
2022/04/13 14:23:42;;;;;;;6.60;2.58;;;;;;;22.01;27.69;100538.88;10546803;28;20203;-84
2022/04/13 14:28:46;;;;;;;8.77;3.47;;;;;;;21.83;28.31;100541.06;10563889;28;20198;-85
2022/04/13 14:33:48;;;;;;;7.28;2.72;;;;;;;21.89;28.20;100548.03;10560431;28;20284;-84
2022/04/13 14:38:50;;;;;;;6.97;3.63;;;;;;;20.51;30.42;100540.69;10534005;28;20549;-84
2022/04/13 14:43:52;;;;;;;7.82;3.83;;;;;;;22.57;28.11;100536.75;10548935;28;20202;-85
2022/04/13 14:48:54;;;;;;;6.03;3.88;;;;;;;21.51;28.88;100547.00;10552099;28;20221;-84
2022/04/13 14:53:57;;;;;;;8.70;4.82;;;;;;;20.54;30.24;100551.34;10552196;28;20732;-84
2022/04/13 14:59:01;;;;;;;9.20;4.15;;;;;;;21.62;29.45;100546.94;10561966;28;20217;-84
2022/04/13 15:04:03;;;;;;;11.90;4.80;;;;;;;22.98;26.70;100544.59;10545357;28;20198;-85
2022/04/13 15:09:06;;;;;;;6.30;4.03;;;;;;;22.81;27.24;100557.13;10535438;28;20198;-85
2022/04/13 15:14:08;;;;;;;9.73;4.40;;;;;;;21.19;29.15;100567.25;10554827;28;20230;-85
2022/04/13 15:19:12;;;;;;;5.68;3.65;;;;;;;21.45;29.02;100556.47;10519201;28;20642;-85
2022/04/13 15:24:19;;;;;;;7.63;4.15;;;;;;;22.21;28.44;100584.38;10562978;27;20202;-84
2022/04/13 15:29:21;;;;;;;12.50;6.40;;;;;;;22.31;28.36;100575.69;10538889;28;20310;-83
2022/04/13 15:34:23;;;;;;;9.43;6.22;;;;;;;22.19;28.80;100583.97;10538233;27;20276;-87
2022/04/13 15:39:26;;;;;;;10.63;7.15;;;;;;;22.39;28.74;100588.78;10579493;27;20657;-84
2022/04/13 15:44:28;;;;;;;11.70;6.72;;;;;;;21.86;29.92;100585.47;10549550;28;20202;-84
2022/04/13 15:49:31;;;;;;;11.68;5.85;;;;;;;21.49;30.01;100583.16;10528359;28;21282;-87
2022/04/13 15:54:33;;;;;;;9.80;6.72;;;;;;;20.52;31.18;100591.16;10518896;28;20801;-85
2022/04/13 15:59:35;;;;;;;12.80;6.78;;;;;;;20.37;31.02;100583.75;10538431;28;20264;-86
2022/04/13 16:04:37;;;;;;;8.82;5.25;;;;;;;21.63;29.01;100580.22;10530720;27;20277;-85
2022/04/13 16:09:40;;;;;;;7.47;3.80;;;;;;;20.68;29.35;100587.88;10542227;27;20213;-85
2022/04/13 16:14:42;;;;;;;4.72;3.10;;;;;;;22.20;27.30;100600.00;10553220;28;20628;-83
2022/04/13 16:19:44;;;;;;;8.32;2.42;;;;;;;22.51;26.60;100586.63;10560946;28;21009;-86
2022/04/13 16:24:46;;;;;;;4.15;1.50;;;;;;;21.76;27.36;100601.56;10561835;28;20280;-83
2022/04/13 16:29:49;;;;;;;3.33;1.73;;;;;;;22.53;26.54;100608.03;10556525;28;20202;-85
2022/04/13 16:34:52;;;;;;;4.15;1.50;;;;;;;21.86;27.11;100605.59;10556935;28;20263;-84
2022/04/13 16:39:54;;;;;;;4.28;1.80;;;;;;;22.80;26.25;100613.13;10550329;28;20230;-85
2022/04/13 16:44:58;;;;;;;5.53;2.40;;;;;;;22.47;27.07;100597.38;10526733;28;20234;-83
2022/04/13 16:50:00;;;;;;;6.63;2.83;;;;;;;20.71;29.85;100615.81;10555941;28;20198;-83
2022/04/13 16:55:08;;;;;;;5.85;2.85;;;;;;;21.63;28.96;100614.75;10548859;28;20240;-83
2022/04/13 17:00:11;;;;;;;5.72;2.50;;;;;;;20.57;30.39;100618.66;10560468;28;20226;-85
2022/04/13 17:05:13;;;;;;;9.05;2.35;;;;;;;22.61;27.32;100626.06;10561290;28;20214;-84
2022/04/13 17:10:17;;;;;;;8.10;2.70;;;;;;;21.63;28.55;100623.38;10564177;28;20276;-84
2022/04/13 17:15:19;;;;;;;5.30;3.00;;;;;;;22.04;28.02;100630.16;10553666;28;20629;-83
2022/04/13 17:20:25;;;;;;;6.57;3.33;;;;;;;21.58;28.98;100633.25;10598604;27;20278;-83
2022/04/13 17:25:27;;;;;;;8.00;3.20;;;;;;;21.40;29.23;100634.53;10598195;27;20198;-85
2022/04/13 17:30:29;;;;;;;7.30;3.63;;;;;;;19.93;31.43;100655.88;10540220;27;20358;-85
2022/04/13 17:35:32;;;;;;;6.18;2.90;;;;;;;21.84;28.70;100654.94;10545602;27;20630;-84
2022/04/13 17:40:34;;;;;;;6.82;3.08;;;;;;;21.35;29.22;100651.00;10546364;27;20221;-84
2022/04/13 17:45:37;;;;;;;8.13;3.55;;;;;;;20.98;29.91;100662.97;10554933;27;20669;-82
2022/04/13 17:50:41;;;;;;;6.88;3.67;;;;;;;21.45;29.40;100648.50;10554117;27;20267;-84
2022/04/13 17:55:45;;;;;;;7.55;3.50;;;;;;;19.68;32.01;100667.25;10537783;28;20233;-84
2022/04/13 18:00:50;;;;;;;9.45;2.70;;;;;;;20.91;30.22;100676.53;10550777;27;20330;-83
2022/04/13 18:05:52;;;;;;;7.22;3.25;;;;;;;21.10;29.83;100678.97;10552132;27;20275;-84
2022/04/13 18:10:56;;;;;;;10.65;3.22;;;;;;;21.38;29.08;100685.94;10572729;27;20249;-84
2022/04/13 18:16:04;;;;;;;8.75;2.63;;;;;;;20.74;29.86;100689.66;10544688;27;20249;-84
2022/04/13 18:21:07;;;;;;;4.35;2.58;;;;;;;21.96;28.45;100691.91;10558869;27;20280;-84
2022/04/13 18:26:09;;;;;;;6.82;2.50;;;;;;;22.41;27.35;100683.44;10577517;27;20230;-83
2022/04/13 18:31:12;;;;;;;3.20;2.22;;;;;;;22.10;27.51;100696.75;10538397;27;20245;-85
2022/04/13 18:36:15;;;;;;;5.43;2.58;;;;;;;22.41;26.93;100694.97;10556093;27;20193;-84
2022/04/13 18:41:17;;;;;;;7.57;2.30;;;;;;;22.18;27.37;100700.41;10554799;27;20282;-84
2022/04/13 18:46:20;;;;;;;5.68;2.10;;;;;;;22.58;26.76;100711.28;10550863;27;20206;-84
2022/04/13 18:51:22;;;;;;;5.10;2.50;;;;;;;22.33;27.36;100716.41;10567666;27;20695;-84
2022/04/13 18:56:25;;;;;;;6.82;2.38;;;;;;;21.78;27.65;100725.69;10559589;27;20475;-85
2022/04/13 19:01:29;;;;;;;5.80;2.70;;;;;;;21.71;28.22;100725.69;10558457;27;20213;-86
2022/04/13 19:06:32;;;;;;;6.10;2.50;;;;;;;22.12;27.50;100733.78;10545413;27;20292;-85
2022/04/13 19:11:34;;;;;;;7.90;2.78;;;;;;;19.72;30.91;100742.66;10546531;27;20287;-85
2022/04/13 19:16:36;;;;;;;4.53;3.13;;;;;;;21.27;29.15;100741.41;10551908;27;20356;-84
2022/04/13 19:21:40;;;;;;;5.38;2.83;;;;;;;21.63;28.48;100749.97;10538049;27;20225;-85
2022/04/13 19:26:44;;;;;;;7.15;3.53;;;;;;;21.12;29.54;100756.19;10552925;27;20201;-84
2022/04/13 19:31:47;;;;;;;6.20;3.03;;;;;;;21.00;29.60;100763.97;10551642;27;20249;-84
2022/04/13 19:36:50;;;;;;;6.75;4.13;;;;;;;20.64;30.10;100766.00;10547003;27;20553;-83
2022/04/13 19:41:52;;;;;;;5.40;3.75;;;;;;;21.07;29.90;100770.97;10540034;27;20210;-83
2022/04/13 19:46:54;;;;;;;10.60;5.32;;;;;;;20.90;30.09;100775.47;10541931;27;20274;-84
2022/04/13 19:51:57;;;;;;;9.83;5.13;;;;;;;20.80;30.04;100784.91;10546372;27;20234;-84
2022/04/13 19:56:59;;;;;;;10.47;5.90;;;;;;;20.35;31.68;100798.72;10529097;28;20267;-85
2022/04/13 20:02:01;;;;;;;10.70;5.97;;;;;;;20.20;31.79;100808.53;10562911;27;20240;-84
2022/04/13 20:07:05;;;;;;;12.07;7.60;;;;;;;18.87;34.11;100828.78;10559512;27;20204;-85
2022/04/13 20:12:07;;;;;;;10.07;6.70;;;;;;;20.12;32.18;100818.31;10543942;27;20261;-85
2022/04/13 20:17:10;;;;;;;15.07;8.00;;;;;;;19.94;32.67;100816.16;10536625;28;20298;-84
2022/04/13 20:22:12;;;;;;;12.60;8.68;;;;;;;19.18;34.25;100827.44;10548108;28;20229;-84
2022/04/13 20:27:15;;;;;;;15.77;8.20;;;;;;;20.12;32.74;100818.31;10544469;28;20610;-85
2022/04/13 20:32:17;;;;;;;11.63;8.48;;;;;;;19.66;33.69;100838.09;10528222;28;20242;-84
2022/04/13 20:37:19;;;;;;;11.82;7.78;;;;;;;20.23;32.18;100836.41;10545965;28;20233;-84
2022/04/13 20:42:22;;;;;;;10.55;8.85;;;;;;;19.29;34.55;100849.66;10537115;28;20510;-84
2022/04/13 20:47:24;;;;;;;16.57;8.73;;;;;;;20.19;32.60;100847.88;10526043;28;20242;-84
2022/04/13 20:52:28;;;;;;;12.10;8.00;;;;;;;21.05;31.10;100846.13;10546989;28;20556;-84
2022/04/13 20:57:31;;;;;;;10.73;8.48;;;;;;;21.41;30.38;100849.84;10552692;28;20238;-84
2022/04/13 21:02:33;;;;;;;10.93;7.95;;;;;;;20.60;31.75;100851.34;10585578;27;20229;-84
2022/04/13 21:07:36;;;;;;;11.43;8.73;;;;;;;18.59;35.30;100856.28;10591481;27;20194;-84
2022/04/13 21:12:38;;;;;;;13.53;7.70;;;;;;;20.66;31.62;100848.91;10565780;27;20640;-85
2022/04/13 21:17:40;;;;;;;11.40;7.55;;;;;;;20.54;31.40;100844.34;10587194;27;20638;-85
2022/04/13 21:22:43;;;;;;;12.02;8.52;;;;;;;20.41;31.96;100851.66;10584425;27;20213;-85
2022/04/13 21:27:45;;;;;;;11.82;8.43;;;;;;;18.86;34.88;100877.88;10588719;27;20206;-84
2022/04/13 21:32:48;;;;;;;12.93;8.17;;;;;;;21.00;31.56;100863.75;10584831;27;20294;-85
2022/04/13 21:37:50;;;;;;;15.73;7.87;;;;;;;20.46;32.02;100880.00;10564454;27;20278;-84
2022/04/13 21:42:52;;;;;;;11.07;7.57;;;;;;;18.89;34.50;100900.03;10582438;28;20198;-84
2022/04/13 21:47:55;;;;;;;13.48;7.22;;;;;;;18.92;35.18;100893.53;10578272;27;20253;-84
2022/04/13 21:53:00;;;;;;;12.95;7.28;;;;;;;19.54;34.03;100902.34;10598858;27;20237;-84
2022/04/13 21:58:06;;;;;;;15.55;7.32;;;;;;;20.24;32.76;100889.72;10605610;27;20232;-84
2022/04/13 22:03:08;;;;;;;10.37;6.50;;;;;;;20.36;32.34;100897.16;10542992;28;20222;-83
2022/04/13 22:08:11;;;;;;;8.60;5.10;;;;;;;19.43;33.30;100902.22;10556865;27;20717;-84
2022/04/13 22:13:14;;;;;;;7.78;5.25;;;;;;;20.23;32.12;100893.81;10573530;28;20249;-84
2022/04/13 22:18:16;;;;;;;9.80;5.18;;;;;;;19.88;32.67;100903.84;10560320;28;20214;-83
2022/04/13 22:23:18;;;;;;;11.73;5.43;;;;;;;19.35;33.72;100922.63;10588516;27;20194;-84
2022/04/13 22:28:21;;;;;;;6.53;4.77;;;;;;;19.65;33.52;100911.84;10582919;27;20591;-84
2022/04/13 22:33:23;;;;;;;7.40;4.57;;;;;;;18.03;36.32;100917.25;10603955;27;20282;-84
2022/04/13 22:38:25;;;;;;;6.82;4.90;;;;;;;19.71;33.28;100915.16;10561162;28;20195;-84
2022/04/13 22:43:27;;;;;;;7.50;4.33;;;;;;;19.79;32.90;100926.31;10561954;28;20202;-84
2022/04/13 22:48:30;;;;;;;7.43;4.60;;;;;;;19.70;33.00;100928.69;10593636;27;20258;-84
2022/04/13 22:53:32;;;;;;;8.30;4.93;;;;;;;19.55;33.06;100932.69;10602324;27;20218;-84
2022/04/13 22:58:34;;;;;;;8.68;4.75;;;;;;;19.85;32.63;100913.22;10583113;27;20658;-84
2022/04/13 23:03:36;;;;;;;6.82;3.92;;;;;;;20.09;32.43;100917.53;10596040;27;20278;-84
2022/04/13 23:08:38;;;;;;;4.83;4.10;;;;;;;19.48;33.90;100921.13;10602838;27;20486;-86